createdAt,value
2022-07-29T00:01:19.516Z,2.10
2022-07-29T00:03:49.080Z,2.00
2022-07-29T00:06:18.672Z,2.20
2022-07-29T00:08:47.939Z,2.08
2022-07-29T00:11:17.246Z,1.90
2022-07-29T00:13:50.841Z,2.27
2022-07-29T00:16:17.687Z,2.20
2022-07-29T00:18:47.029Z,2.12
2022-07-29T00:21:16.377Z,2.37
2022-07-29T00:23:45.666Z,2.00
2022-07-29T00:26:15.019Z,2.42
2022-07-29T00:28:44.276Z,2.20
2022-07-29T00:31:13.997Z,2.10
2022-07-29T00:33:43.269Z,2.10
2022-07-29T00:36:12.827Z,2.12
2022-07-29T00:38:43.864Z,2.40
2022-07-29T00:41:13.971Z,2.10
2022-07-29T00:43:43.674Z,2.30
2022-07-29T00:46:13.774Z,2.17
2022-07-29T00:48:43.305Z,2.30
2022-07-29T00:51:12.689Z,2.17
2022-07-29T00:53:42.049Z,2.27
2022-07-29T00:56:11.397Z,2.20
2022-07-29T00:58:41.434Z,2.30
2022-07-29T01:01:10.759Z,2.30
2022-07-29T01:03:40.055Z,2.12
2022-07-29T01:06:09.889Z,2.20
2022-07-29T01:08:39.439Z,2.40
2022-07-29T01:11:09.372Z,2.25
2022-07-29T01:13:39.079Z,2.20
2022-07-29T01:16:11.590Z,2.02
2022-07-29T01:18:44.161Z,2.22
2022-07-29T01:24:23.182Z,2.30
2022-07-29T01:27:01.401Z,2.35
2022-07-29T01:29:40.372Z,2.25
2022-07-29T01:32:27.836Z,2.25
2022-07-29T01:34:54.443Z,2.30
2022-07-29T01:37:29.376Z,2.17
2022-07-29T01:40:00.368Z,2.50
2022-07-29T01:42:32.810Z,2.60
2022-07-29T01:45:17.014Z,2.30
2022-07-29T01:47:55.627Z,2.40
2022-07-29T01:50:28.038Z,2.27
2022-07-29T01:53:00.521Z,2.75
2022-07-29T01:55:31.701Z,2.40
2022-07-29T01:58:01.919Z,2.45
2022-07-29T02:00:32.768Z,2.20
2022-07-29T02:03:04.813Z,2.50
2022-07-29T02:05:35.343Z,2.87
2022-07-29T02:08:05.432Z,2.37
2022-07-29T02:10:35.639Z,2.45
2022-07-29T02:13:06.625Z,2.60
2022-07-29T02:15:36.655Z,2.52
2022-07-29T02:18:22.781Z,2.50
2022-07-29T02:20:54.435Z,2.47
2022-07-29T02:23:25.434Z,2.40
2022-07-29T02:25:57.108Z,2.70
2022-07-29T02:28:28.698Z,2.60
2022-07-29T02:31:02.742Z,2.55
2022-07-29T02:33:33.097Z,2.83
2022-07-29T02:36:03.352Z,2.60
2022-07-29T02:38:51.066Z,2.50
2022-07-29T02:41:32.960Z,2.60
2022-07-29T02:44:05.494Z,3.00
2022-07-29T02:46:36.934Z,2.60
2022-07-29T02:49:21.321Z,2.70
2022-07-29T02:52:16.491Z,2.75
2022-07-29T02:55:08.570Z,2.70
2022-07-29T02:57:53.739Z,2.90
2022-07-29T03:00:13.189Z,3.00
2022-07-29T03:02:45.061Z,2.62
2022-07-29T03:05:17.612Z,2.77
2022-07-29T03:10:17.999Z,2.72
2022-07-29T03:12:47.665Z,2.52
2022-07-29T03:15:17.180Z,2.60
2022-07-29T03:17:46.825Z,2.83
2022-07-29T03:20:16.458Z,2.90
2022-07-29T03:22:48.294Z,3.08
2022-07-29T03:25:19.280Z,3.10
2022-07-29T03:27:49.406Z,2.72
2022-07-29T03:30:21.754Z,3.17
2022-07-29T03:32:51.875Z,2.90
2022-07-29T03:35:21.878Z,3.25
2022-07-29T03:37:51.653Z,3.22
2022-07-29T03:40:33.753Z,3.20
2022-07-29T03:43:03.952Z,3.40
2022-07-29T03:45:34.380Z,3.35
2022-07-29T03:48:09.546Z,3.00
2022-07-29T03:50:38.963Z,3.15
2022-07-29T03:53:08.320Z,3.10
2022-07-29T03:55:43.556Z,3.20
2022-07-29T03:58:13.853Z,3.22
2022-07-29T04:00:44.918Z,3.40
2022-07-29T04:03:15.730Z,3.22
2022-07-29T04:05:45.378Z,3.00
2022-07-29T04:08:14.673Z,3.20
2022-07-29T04:10:43.974Z,3.40
2022-07-29T04:13:13.257Z,3.40
2022-07-29T04:15:42.720Z,3.22
2022-07-29T04:18:12.025Z,3.00
2022-07-29T04:20:41.296Z,3.30
2022-07-29T04:23:10.767Z,3.10
2022-07-29T04:25:40.953Z,3.62
2022-07-29T04:28:10.763Z,3.40
2022-07-29T04:30:40.446Z,3.50
2022-07-29T04:33:10.082Z,3.47
2022-07-29T04:35:45.798Z,3.50
2022-07-29T04:38:15.820Z,3.62
2022-07-29T04:40:41.945Z,3.33
2022-07-29T04:43:11.186Z,3.20
2022-07-29T04:45:42.148Z,3.30
2022-07-29T04:48:11.565Z,3.67
2022-07-29T04:50:41.677Z,3.42
2022-07-29T04:53:10.931Z,3.17
2022-07-29T04:55:40.265Z,3.50
2022-07-29T04:58:09.511Z,3.37
2022-07-29T05:00:38.920Z,3.60
2022-07-29T05:03:08.212Z,3.25
2022-07-29T05:05:37.496Z,3.35
2022-07-29T05:08:06.844Z,3.40
2022-07-29T05:10:38.440Z,3.30
2022-07-29T05:13:08.561Z,3.45
2022-07-29T05:15:38.349Z,3.90
2022-07-29T05:18:08.067Z,3.85
2022-07-29T05:20:37.419Z,3.50
2022-07-29T05:23:06.711Z,3.62
2022-07-29T05:25:43.569Z,3.45
2022-07-29T05:28:07.791Z,3.70
2022-07-29T05:30:37.152Z,3.67
2022-07-29T05:33:06.488Z,3.40
2022-07-29T05:35:37.517Z,3.90
2022-07-29T05:38:06.890Z,3.87
2022-07-29T05:40:36.726Z,3.25
2022-07-29T05:43:05.968Z,3.62
2022-07-29T05:45:35.329Z,3.62
2022-07-29T05:48:06.436Z,3.37
2022-07-29T05:50:35.704Z,3.70
2022-07-29T05:53:19.722Z,3.50
2022-07-29T05:55:37.843Z,3.52
2022-07-29T05:58:08.815Z,3.90
2022-07-29T06:00:38.064Z,3.30
2022-07-29T06:03:07.303Z,3.30
2022-07-29T06:05:36.682Z,3.30
2022-07-29T06:08:09.502Z,3.17
2022-07-29T06:10:39.701Z,3.35
2022-07-29T06:13:09.055Z,3.08
2022-07-29T06:15:38.445Z,3.02
2022-07-29T06:18:09.363Z,3.50
2022-07-29T06:23:08.870Z,3.40
2022-07-29T06:25:38.731Z,3.17
2022-07-29T06:28:07.986Z,3.67
2022-07-29T06:30:37.325Z,3.50
2022-07-29T06:33:06.735Z,3.20
2022-07-29T06:35:42.349Z,3.80
2022-07-29T06:38:34.162Z,3.40
2022-07-29T06:41:03.790Z,3.30
2022-07-29T06:43:50.444Z,3.15
2022-07-29T06:46:21.219Z,3.70
2022-07-29T06:48:50.973Z,3.45
2022-07-29T06:51:22.521Z,3.50
2022-07-29T06:53:59.979Z,3.65
2022-07-29T06:56:24.080Z,3.20
2022-07-29T06:58:54.059Z,3.30
2022-07-29T07:01:23.593Z,3.05
2022-07-29T07:03:52.900Z,6.08
2022-07-29T07:06:22.202Z,3.65
2022-07-29T07:08:51.481Z,3.58
2022-07-29T07:11:20.820Z,3.60
2022-07-29T07:13:50.133Z,3.65
2022-07-29T07:16:19.647Z,3.40
2022-07-29T07:18:49.033Z,3.90
2022-07-29T07:21:19.100Z,3.50
2022-07-29T07:23:49.136Z,3.75
2022-07-29T07:26:18.472Z,3.60
2022-07-29T07:28:47.709Z,3.55
2022-07-29T07:31:17.139Z,3.60
2022-07-29T07:33:46.413Z,3.83
2022-07-29T07:36:15.759Z,3.62
2022-07-29T07:38:45.080Z,3.47
2022-07-29T07:41:14.408Z,3.83
2022-07-29T07:43:43.884Z,3.90
2022-07-29T07:46:13.333Z,3.60
2022-07-29T07:48:43.045Z,3.70
2022-07-29T07:51:12.791Z,3.72
2022-07-29T07:53:42.026Z,3.60
2022-07-29T07:56:12.735Z,3.60
2022-07-29T07:58:42.527Z,3.65
2022-07-29T08:01:12.342Z,3.70
2022-07-29T08:03:41.649Z,3.75
2022-07-29T08:06:10.926Z,4.10
2022-07-29T08:08:40.280Z,3.65
2022-07-29T08:11:10.054Z,4.00
2022-07-29T08:13:40.281Z,3.70
2022-07-29T08:16:13.955Z,3.60
2022-07-29T08:18:44.834Z,3.58
2022-07-29T08:21:15.597Z,4.00
2022-07-29T08:23:51.494Z,3.90
2022-07-29T08:26:18.101Z,3.75
2022-07-29T08:28:49.534Z,3.60
2022-07-29T08:31:19.398Z,3.60
2022-07-29T08:33:48.683Z,3.52
2022-07-29T08:36:17.973Z,3.40
2022-07-29T08:38:47.392Z,3.55
2022-07-29T08:41:17.753Z,3.22
2022-07-29T08:43:47.693Z,3.55
2022-07-29T08:46:18.353Z,3.50
2022-07-29T08:48:51.464Z,3.10
2022-07-29T08:51:22.321Z,3.45
2022-07-29T08:53:52.602Z,3.70
2022-07-29T08:56:22.030Z,3.77
2022-07-29T08:58:52.718Z,3.67
2022-07-29T09:01:36.064Z,3.58
2022-07-29T09:03:59.209Z,3.60
2022-07-29T09:06:33.238Z,3.37
2022-07-29T09:09:02.600Z,3.50
2022-07-29T09:11:33.482Z,3.40
2022-07-29T09:14:02.888Z,3.50
2022-07-29T09:16:57.733Z,3.62
2022-07-29T09:19:33.218Z,3.83
2022-07-29T09:22:04.317Z,3.58
2022-07-29T09:24:41.185Z,3.50
2022-07-29T09:27:27.040Z,3.25
2022-07-29T09:30:01.523Z,3.65
2022-07-29T09:32:31.335Z,3.35
2022-07-29T09:35:21.361Z,3.55
2022-07-29T09:37:51.255Z,3.10
2022-07-29T09:40:23.261Z,3.17
2022-07-29T09:42:54.898Z,3.67
2022-07-29T09:45:32.981Z,3.65
2022-07-29T09:48:22.076Z,3.27
2022-07-29T09:50:51.984Z,3.08
2022-07-29T09:53:40.976Z,3.40
2022-07-29T09:56:11.690Z,3.20
2022-07-29T09:58:41.184Z,2.92
2022-07-29T10:01:10.645Z,2.90
2022-07-29T10:03:53.484Z,3.17
2022-07-29T10:06:24.588Z,2.40
2022-07-29T10:08:53.929Z,2.90
2022-07-29T10:11:23.611Z,2.60
2022-07-29T10:13:52.853Z,2.40
2022-07-29T10:16:22.290Z,2.35
2022-07-29T10:18:52.107Z,5.15
2022-07-29T10:21:35.082Z,2.20
2022-07-29T10:23:54.431Z,2.52
2022-07-29T10:26:25.750Z,2.45
2022-07-29T10:28:55.131Z,2.40
2022-07-29T10:31:30.260Z,2.65
2022-07-29T10:34:17.869Z,2.60
2022-07-29T10:36:57.468Z,2.42
2022-07-29T10:39:49.871Z,2.40
2022-07-29T10:42:33.289Z,2.72
2022-07-29T10:44:56.880Z,2.10
2022-07-29T10:47:28.072Z,2.40
2022-07-29T10:52:30.290Z,2.30
2022-07-29T10:55:01.309Z,1.90
2022-07-29T10:57:53.881Z,2.37
2022-07-29T11:00:11.591Z,2.22
2022-07-29T11:02:44.714Z,2.10
2022-07-29T11:05:15.485Z,2.12
2022-07-29T11:08:19.712Z,2.20
2022-07-29T11:10:44.653Z,2.15
2022-07-29T11:13:14.318Z,2.10
2022-07-29T11:15:56.545Z,2.37
2022-07-29T11:18:26.080Z,2.40
2022-07-29T11:20:55.435Z,2.17
2022-07-29T11:23:33.835Z,2.15
2022-07-29T11:26:18.937Z,1.92
2022-07-29T11:29:12.622Z,1.87
2022-07-29T11:31:44.267Z,1.85
2022-07-29T11:34:30.764Z,1.90
2022-07-29T11:37:15.117Z,1.60
2022-07-29T11:39:47.434Z,1.70
2022-07-29T11:42:32.999Z,2.00
2022-07-29T11:45:41.520Z,1.92
2022-07-29T11:47:41.589Z,2.00
2022-07-29T11:50:14.437Z,2.00
2022-07-29T11:52:49.802Z,1.90
2022-07-29T11:55:22.089Z,1.90
2022-07-29T11:58:04.007Z,1.67
2022-07-29T12:00:35.492Z,2.17
2022-07-29T12:03:08.470Z,1.92
2022-07-29T12:05:48.261Z,1.40
2022-07-29T12:08:19.009Z,2.47
2022-07-29T12:10:50.818Z,2.10
2022-07-29T12:13:22.214Z,1.90
2022-07-29T12:15:59.993Z,1.82
2022-07-29T12:18:29.229Z,1.70
2022-07-29T12:21:05.496Z,1.57
2022-07-29T12:23:35.548Z,1.52
2022-07-29T12:26:11.108Z,1.62
2022-07-29T12:28:41.471Z,1.72
2022-07-29T12:31:43.449Z,1.82
2022-07-29T12:33:51.600Z,1.60
2022-07-29T12:36:20.935Z,1.50
2022-07-29T12:38:50.402Z,1.40
2022-07-29T12:41:21.589Z,1.60
2022-07-29T12:43:55.506Z,1.77
2022-07-29T12:46:24.803Z,1.60
2022-07-29T12:48:56.821Z,1.40
2022-07-29T12:51:37.604Z,1.50
2022-07-29T12:54:09.423Z,1.65
2022-07-29T12:56:44.307Z,1.72
2022-07-29T12:59:17.707Z,1.40
2022-07-29T13:01:51.446Z,1.55
2022-07-29T13:04:32.296Z,1.85
2022-07-29T13:07:04.616Z,1.77
2022-07-29T13:09:45.022Z,1.77
2022-07-29T13:12:15.819Z,1.90
2022-07-29T13:14:53.666Z,1.57
2022-07-29T13:17:32.700Z,1.67
2022-07-29T13:20:11.290Z,1.60
2022-07-29T13:22:41.044Z,2.20
2022-07-29T13:25:11.514Z,1.77
2022-07-29T13:27:41.558Z,1.75
2022-07-29T13:30:12.296Z,1.85
2022-07-29T13:32:41.582Z,2.00
2022-07-29T13:35:11.325Z,2.00
2022-07-29T13:37:40.681Z,1.92
2022-07-29T13:40:11.127Z,1.90
2022-07-29T13:42:40.482Z,2.40
2022-07-29T13:45:11.650Z,2.17
2022-07-29T13:47:47.660Z,2.23
2022-07-29T13:50:13.050Z,2.02
2022-07-29T13:52:42.327Z,2.17
2022-07-29T13:55:11.579Z,1.80
2022-07-29T13:57:40.830Z,2.80
2022-07-29T14:00:11.526Z,2.08
2022-07-29T14:02:40.832Z,2.40
2022-07-29T14:05:11.193Z,2.30
2022-07-29T14:07:40.794Z,2.22
2022-07-29T14:10:10.921Z,2.45
2022-07-29T14:12:41.976Z,2.45
2022-07-29T14:15:11.616Z,2.83
2022-07-29T14:17:40.909Z,2.40
2022-07-29T14:20:10.745Z,2.50
2022-07-29T14:22:42.653Z,2.42
2022-07-29T14:25:14.958Z,2.00
2022-07-29T14:27:42.329Z,2.30
2022-07-29T14:30:12.234Z,2.30
2022-07-29T14:32:41.578Z,2.40
2022-07-29T14:35:11.002Z,2.20
2022-07-29T14:37:43.273Z,2.25
2022-07-29T14:40:12.965Z,2.40
2022-07-29T14:42:42.377Z,2.58
2022-07-29T14:45:12.086Z,2.60
2022-07-29T14:47:41.825Z,2.60
2022-07-29T14:50:11.429Z,2.50
2022-07-29T14:52:40.720Z,2.67
2022-07-29T14:55:19.839Z,2.52
2022-07-29T14:57:41.241Z,2.30
2022-07-29T15:00:12.174Z,3.12
2022-07-29T15:03:00.949Z,2.98
2022-07-29T15:05:12.623Z,2.90
2022-07-29T15:07:41.973Z,2.70
2022-07-29T15:10:11.308Z,2.50
2022-07-29T15:12:42.351Z,2.58
2022-07-29T15:15:12.694Z,3.83
2022-07-29T15:17:43.541Z,4.58
2022-07-29T15:20:13.346Z,4.15
2022-07-29T15:22:43.970Z,3.58
2022-07-29T15:25:13.478Z,3.58
2022-07-29T15:27:42.903Z,3.05
2022-07-29T15:30:31.603Z,3.20
2022-07-29T15:32:46.911Z,2.60
2022-07-29T15:35:16.185Z,2.42
2022-07-29T15:37:48.898Z,2.25
2022-07-29T15:40:17.078Z,2.17
2022-07-29T15:42:46.482Z,2.27
2022-07-29T15:45:15.740Z,2.25
2022-07-29T15:47:46.702Z,2.27
2022-07-29T15:50:16.826Z,2.35
2022-07-29T15:52:46.992Z,2.60
2022-07-29T15:55:16.535Z,2.30
2022-07-29T15:57:45.770Z,2.15
2022-07-29T16:00:17.302Z,2.98
2022-07-29T16:02:46.589Z,3.10
2022-07-29T16:05:15.949Z,2.90
2022-07-29T16:07:45.195Z,3.50
2022-07-29T16:10:14.680Z,3.60
2022-07-29T16:12:45.644Z,3.22
2022-07-29T16:15:15.397Z,2.90
2022-07-29T16:17:44.994Z,2.42
2022-07-29T16:20:14.259Z,2.55
2022-07-29T16:22:43.665Z,2.80
2022-07-29T16:25:13.195Z,2.80
2022-07-29T16:27:42.507Z,2.67
2022-07-29T16:30:12.667Z,2.67
2022-07-29T16:32:42.095Z,2.50
2022-07-29T16:35:11.757Z,2.77
2022-07-29T16:37:41.071Z,2.42
2022-07-29T16:40:11.421Z,2.47
2022-07-29T16:42:47.028Z,2.70
2022-07-29T16:45:13.048Z,2.70
2022-07-29T16:47:42.418Z,2.40
2022-07-29T16:50:12.495Z,2.58
2022-07-29T16:52:41.792Z,2.20
2022-07-29T16:55:11.300Z,2.52
2022-07-29T16:57:42.304Z,2.17
2022-07-29T17:00:12.816Z,2.30
2022-07-29T17:02:42.176Z,2.50
2022-07-29T17:05:12.442Z,2.40
2022-07-29T17:07:42.719Z,2.60
2022-07-29T17:10:12.379Z,2.50
2022-07-29T17:12:42.403Z,2.37
2022-07-29T17:15:13.045Z,2.22
2022-07-29T17:17:55.144Z,2.70
2022-07-29T17:20:13.529Z,2.75
2022-07-29T17:22:44.503Z,3.00
2022-07-29T17:25:20.597Z,2.60
2022-07-29T17:27:45.148Z,2.60
2022-07-29T17:30:14.707Z,2.67
2022-07-29T17:32:43.975Z,2.30
2022-07-29T17:35:31.211Z,2.33
2022-07-29T17:38:00.467Z,2.65
2022-07-29T17:40:29.887Z,2.58
2022-07-29T17:42:59.203Z,2.30
2022-07-29T17:45:49.349Z,2.55
2022-07-29T17:47:59.769Z,2.50
2022-07-29T17:50:29.080Z,2.60
2022-07-29T17:52:58.328Z,2.37
2022-07-29T17:55:27.646Z,2.22
2022-07-29T17:57:59.981Z,2.80
2022-07-29T18:00:28.092Z,2.80
2022-07-29T18:02:57.430Z,2.75
2022-07-29T18:05:26.651Z,2.20
2022-07-29T18:07:59.047Z,2.30
2022-07-29T18:10:28.305Z,2.15
2022-07-29T18:12:57.594Z,2.20
2022-07-29T18:15:26.987Z,2.20
2022-07-29T18:17:57.789Z,2.20
2022-07-29T18:20:27.917Z,2.42
2022-07-29T18:22:57.232Z,2.12
2022-07-29T18:25:26.797Z,2.33
2022-07-29T18:28:00.363Z,2.25
2022-07-29T18:30:27.504Z,2.50
2022-07-29T18:33:19.656Z,2.10
2022-07-29T18:35:27.885Z,2.00
2022-07-29T18:38:00.744Z,2.65
2022-07-29T18:40:28.570Z,2.10
2022-07-29T18:42:59.191Z,2.42
2022-07-29T18:45:29.035Z,2.30
2022-07-29T18:47:58.557Z,2.20
2022-07-29T18:50:29.782Z,2.20
2022-07-29T18:53:01.754Z,2.22
2022-07-29T18:55:31.080Z,2.27
2022-07-29T18:58:00.568Z,2.40
2022-07-29T19:00:30.662Z,2.35
2022-07-29T19:03:00.107Z,2.30
2022-07-29T19:05:29.457Z,2.15
2022-07-29T19:07:59.437Z,2.35
2022-07-29T19:10:33.267Z,2.22
2022-07-29T19:13:02.846Z,2.33
2022-07-29T19:15:32.074Z,2.37
2022-07-29T19:18:01.594Z,2.47
2022-07-29T19:20:30.965Z,2.27
2022-07-29T19:23:00.396Z,2.22
2022-07-29T19:25:29.985Z,2.10
2022-07-29T19:27:59.588Z,2.30
2022-07-29T19:30:28.860Z,2.10
2022-07-29T19:32:58.617Z,2.15
2022-07-29T19:35:33.749Z,1.75
2022-07-29T19:38:04.246Z,2.40
2022-07-29T19:40:33.494Z,2.47
2022-07-29T19:43:02.988Z,2.20
2022-07-29T19:45:34.604Z,2.50
2022-07-29T19:48:05.184Z,2.37
2022-07-29T19:50:34.515Z,2.60
2022-07-29T19:53:03.961Z,2.35
2022-07-29T19:55:33.506Z,2.40
2022-07-29T19:58:04.693Z,2.80
2022-07-29T20:00:36.143Z,3.35
2022-07-29T20:03:06.004Z,2.98
2022-07-29T20:05:35.467Z,2.72
2022-07-29T20:08:06.383Z,2.72
2022-07-29T20:10:35.822Z,2.98
2022-07-29T20:13:05.355Z,3.10
2022-07-29T20:15:34.730Z,3.00
2022-07-29T20:18:04.267Z,2.83
2022-07-29T20:20:33.591Z,2.90
2022-07-29T20:23:03.713Z,3.33
2022-07-29T20:25:34.527Z,3.40
2022-07-29T20:28:03.877Z,3.27
2022-07-29T20:30:33.184Z,3.45
2022-07-29T20:33:02.489Z,3.45
2022-07-29T20:35:32.541Z,3.52
2022-07-29T20:38:02.003Z,3.70
2022-07-29T20:40:31.297Z,3.70
2022-07-29T20:43:00.781Z,4.00
2022-07-29T20:45:30.445Z,3.80
2022-07-29T20:47:59.763Z,3.90
2022-07-29T20:50:29.983Z,4.28
2022-07-29T20:52:59.330Z,3.90
2022-07-29T20:55:28.774Z,3.70
2022-07-29T20:57:58.400Z,4.55
2022-07-29T21:00:28.766Z,3.80
2022-07-29T21:02:58.707Z,3.90
2022-07-29T21:05:28.056Z,4.35
2022-07-29T21:07:58.325Z,4.28
2022-07-29T21:10:29.457Z,4.45
2022-07-29T21:13:01.002Z,4.60
2022-07-29T21:15:31.182Z,4.30
2022-07-29T21:18:05.253Z,4.75
2022-07-29T21:20:34.601Z,4.25
2022-07-29T21:23:03.858Z,4.62
2022-07-29T21:25:35.017Z,4.50
2022-07-29T21:28:22.383Z,4.53
2022-07-29T21:30:51.666Z,4.65
2022-07-29T21:33:21.123Z,4.60
2022-07-29T21:38:21.954Z,4.83
2022-07-29T21:40:52.599Z,5.17
2022-07-29T21:43:22.715Z,5.10
2022-07-29T21:45:52.100Z,5.17
2022-07-29T21:48:22.612Z,5.47
2022-07-29T21:50:52.603Z,5.60
2022-07-29T21:53:23.068Z,5.55
2022-07-29T21:55:55.499Z,5.40
2022-07-29T21:58:24.993Z,5.15
2022-07-29T22:00:54.412Z,5.45
2022-07-29T22:03:24.050Z,19.15
2022-07-29T22:05:53.393Z,23.10
2022-07-29T22:08:22.776Z,32.35
2022-07-29T22:10:52.202Z,7.70
2022-07-29T22:13:21.483Z,6.53
2022-07-29T22:15:50.836Z,6.37
2022-07-29T22:18:21.329Z,6.42
2022-07-29T22:20:51.255Z,6.60
2022-07-29T22:23:20.585Z,6.67
2022-07-29T22:25:50.219Z,6.85
2022-07-29T22:28:19.484Z,7.10
2022-07-29T22:30:48.910Z,6.80
2022-07-29T22:33:18.410Z,6.70
2022-07-29T22:35:48.551Z,6.83
2022-07-29T22:38:19.143Z,6.85
2022-07-29T22:40:50.769Z,6.85
2022-07-29T22:43:20.377Z,7.30
2022-07-29T22:45:49.722Z,6.97
2022-07-29T22:48:19.124Z,7.03
2022-07-29T22:50:48.557Z,7.60
2022-07-29T22:53:17.851Z,7.85
2022-07-29T22:55:48.035Z,7.90
2022-07-29T22:58:17.562Z,7.40
2022-07-29T23:00:46.938Z,7.85
2022-07-29T23:03:16.274Z,7.83
2022-07-29T23:05:45.595Z,8.15
2022-07-29T23:08:15.001Z,7.65
2022-07-29T23:10:44.288Z,7.47
2022-07-29T23:13:14.056Z,8.73
2022-07-29T23:15:43.510Z,8.18
2022-07-29T23:18:12.993Z,7.97
2022-07-29T23:20:43.888Z,7.90
2022-07-29T23:23:13.123Z,8.25
2022-07-29T23:25:42.458Z,8.60
2022-07-29T23:28:13.258Z,8.30
2022-07-29T23:30:43.572Z,8.03
2022-07-29T23:33:12.815Z,8.05
2022-07-29T23:35:42.437Z,8.75
2022-07-29T23:38:11.799Z,8.73
2022-07-29T23:40:41.143Z,8.98
2022-07-29T23:43:10.597Z,8.63
2022-07-29T23:45:44.944Z,8.53
2022-07-29T23:48:11.051Z,8.58
2022-07-29T23:50:40.388Z,8.58
2022-07-29T23:53:09.682Z,8.75
2022-07-29T23:55:39.414Z,9.05
2022-07-29T23:58:08.768Z,22.52
